sensor_id;sensor_type;location;lat;lon;timestamp;P1;durP1;ratioP1;P2;durP2;ratioP2
48685;SDS011;34485;51.536;3.816;2022-08-19T00:00:03;48.47;;;28.30;;
48685;SDS011;34485;51.536;3.816;2022-08-19T00:02:32;51.72;;;28.13;;
48685;SDS011;34485;51.536;3.816;2022-08-19T00:04:57;48.10;;;27.20;;
48685;SDS011;34485;51.536;3.816;2022-08-19T00:07:23;50.03;;;27.60;;
48685;SDS011;34485;51.536;3.816;2022-08-19T00:09:48;45.97;;;26.73;;
48685;SDS011;34485;51.536;3.816;2022-08-19T00:12:14;49.97;;;27.93;;
48685;SDS011;34485;51.536;3.816;2022-08-19T00:14:40;46.80;;;26.55;;
48685;SDS011;34485;51.536;3.816;2022-08-19T00:17:06;48.83;;;27.02;;
48685;SDS011;34485;51.536;3.816;2022-08-19T00:19:33;49.05;;;26.52;;
48685;SDS011;34485;51.536;3.816;2022-08-19T00:22:00;49.67;;;27.10;;
48685;SDS011;34485;51.536;3.816;2022-08-19T00:24:27;46.53;;;27.33;;
48685;SDS011;34485;51.536;3.816;2022-08-19T00:26:53;53.03;;;28.88;;
48685;SDS011;34485;51.536;3.816;2022-08-19T00:29:21;45.97;;;27.30;;
48685;SDS011;34485;51.536;3.816;2022-08-19T00:31:48;51.65;;;27.63;;
48685;SDS011;34485;51.536;3.816;2022-08-19T00:34:17;46.43;;;27.20;;
48685;SDS011;34485;51.536;3.816;2022-08-19T00:36:43;50.65;;;27.58;;
48685;SDS011;34485;51.536;3.816;2022-08-19T00:39:09;51.17;;;29.38;;
48685;SDS011;34485;51.536;3.816;2022-08-19T00:41:37;53.30;;;26.73;;
48685;SDS011;34485;51.536;3.816;2022-08-19T00:44:04;47.03;;;27.00;;
48685;SDS011;34485;51.536;3.816;2022-08-19T00:46:31;47.42;;;26.85;;
48685;SDS011;34485;51.536;3.816;2022-08-19T00:48:58;52.30;;;27.15;;
48685;SDS011;34485;51.536;3.816;2022-08-19T00:51:27;49.00;;;26.42;;
48685;SDS011;34485;51.536;3.816;2022-08-19T00:53:55;48.60;;;27.40;;
48685;SDS011;34485;51.536;3.816;2022-08-19T00:56:23;50.28;;;25.95;;
48685;SDS011;34485;51.536;3.816;2022-08-19T00:58:49;50.97;;;26.52;;
48685;SDS011;34485;51.536;3.816;2022-08-19T01:01:15;47.17;;;23.92;;
48685;SDS011;34485;51.536;3.816;2022-08-19T01:03:40;45.57;;;26.13;;
48685;SDS011;34485;51.536;3.816;2022-08-19T01:06:06;44.17;;;26.02;;
48685;SDS011;34485;51.536;3.816;2022-08-19T01:08:33;38.93;;;23.50;;
48685;SDS011;34485;51.536;3.816;2022-08-19T01:10:59;42.78;;;25.15;;
48685;SDS011;34485;51.536;3.816;2022-08-19T01:13:27;38.95;;;23.60;;
48685;SDS011;34485;51.536;3.816;2022-08-19T01:15:56;41.67;;;22.83;;
48685;SDS011;34485;51.536;3.816;2022-08-19T01:18:25;42.60;;;23.00;;
48685;SDS011;34485;51.536;3.816;2022-08-19T01:20:53;33.80;;;20.73;;
48685;SDS011;34485;51.536;3.816;2022-08-19T01:23:21;41.00;;;23.92;;
48685;SDS011;34485;51.536;3.816;2022-08-19T01:26:07;40.40;;;22.65;;
48685;SDS011;34485;51.536;3.816;2022-08-19T01:28:35;35.50;;;21.02;;
48685;SDS011;34485;51.536;3.816;2022-08-19T01:31:02;43.20;;;22.02;;
48685;SDS011;34485;51.536;3.816;2022-08-19T01:33:28;41.50;;;21.40;;
48685;SDS011;34485;51.536;3.816;2022-08-19T01:36:03;37.63;;;22.50;;
48685;SDS011;34485;51.536;3.816;2022-08-19T01:38:35;38.80;;;21.60;;
48685;SDS011;34485;51.536;3.816;2022-08-19T01:41:02;36.97;;;21.63;;
48685;SDS011;34485;51.536;3.816;2022-08-19T01:43:28;33.65;;;21.00;;
48685;SDS011;34485;51.536;3.816;2022-08-19T01:45:54;36.83;;;21.97;;
48685;SDS011;34485;51.536;3.816;2022-08-19T01:48:20;36.30;;;20.03;;
48685;SDS011;34485;51.536;3.816;2022-08-19T01:50:45;34.58;;;21.08;;
48685;SDS011;34485;51.536;3.816;2022-08-19T01:53:12;36.15;;;19.42;;
48685;SDS011;34485;51.536;3.816;2022-08-19T01:55:40;36.87;;;19.93;;
48685;SDS011;34485;51.536;3.816;2022-08-19T01:58:08;36.13;;;19.80;;
48685;SDS011;34485;51.536;3.816;2022-08-19T02:00:37;33.17;;;19.75;;
48685;SDS011;34485;51.536;3.816;2022-08-19T02:03:03;36.60;;;20.02;;
48685;SDS011;34485;51.536;3.816;2022-08-19T02:05:29;35.73;;;19.03;;
48685;SDS011;34485;51.536;3.816;2022-08-19T02:07:57;30.37;;;18.63;;
48685;SDS011;34485;51.536;3.816;2022-08-19T02:10:24;28.20;;;18.38;;
48685;SDS011;34485;51.536;3.816;2022-08-19T02:12:49;33.58;;;19.40;;
48685;SDS011;34485;51.536;3.816;2022-08-19T02:15:16;33.60;;;16.87;;
48685;SDS011;34485;51.536;3.816;2022-08-19T02:17:43;33.42;;;19.75;;
48685;SDS011;34485;51.536;3.816;2022-08-19T02:20:09;31.73;;;19.23;;
48685;SDS011;34485;51.536;3.816;2022-08-19T02:22:35;31.37;;;17.00;;
48685;SDS011;34485;51.536;3.816;2022-08-19T02:25:01;32.65;;;17.38;;
48685;SDS011;34485;51.536;3.816;2022-08-19T02:27:29;33.45;;;18.70;;
48685;SDS011;34485;51.536;3.816;2022-08-19T02:29:55;35.63;;;18.30;;
48685;SDS011;34485;51.536;3.816;2022-08-19T02:32:21;31.60;;;17.85;;
48685;SDS011;34485;51.536;3.816;2022-08-19T02:34:47;26.63;;;17.07;;
48685;SDS011;34485;51.536;3.816;2022-08-19T02:37:13;28.88;;;17.50;;
48685;SDS011;34485;51.536;3.816;2022-08-19T02:39:57;33.60;;;18.38;;
48685;SDS011;34485;51.536;3.816;2022-08-19T02:42:23;31.73;;;18.17;;
48685;SDS011;34485;51.536;3.816;2022-08-19T02:44:49;28.05;;;15.50;;
48685;SDS011;34485;51.536;3.816;2022-08-19T02:47:16;34.78;;;17.45;;
48685;SDS011;34485;51.536;3.816;2022-08-19T02:49:44;32.20;;;17.10;;
48685;SDS011;34485;51.536;3.816;2022-08-19T02:52:10;33.28;;;17.20;;
48685;SDS011;34485;51.536;3.816;2022-08-19T02:54:36;29.27;;;16.20;;
48685;SDS011;34485;51.536;3.816;2022-08-19T02:57:03;33.47;;;16.70;;
48685;SDS011;34485;51.536;3.816;2022-08-19T02:59:29;25.10;;;14.60;;
48685;SDS011;34485;51.536;3.816;2022-08-19T03:01:55;29.90;;;15.70;;
48685;SDS011;34485;51.536;3.816;2022-08-19T03:04:21;31.30;;;15.23;;
48685;SDS011;34485;51.536;3.816;2022-08-19T03:06:48;26.00;;;14.07;;
48685;SDS011;34485;51.536;3.816;2022-08-19T03:09:14;30.20;;;14.82;;
48685;SDS011;34485;51.536;3.816;2022-08-19T03:11:40;30.15;;;14.38;;
48685;SDS011;34485;51.536;3.816;2022-08-19T03:14:06;22.47;;;13.73;;
48685;SDS011;34485;51.536;3.816;2022-08-19T03:16:35;32.75;;;14.93;;
48685;SDS011;34485;51.536;3.816;2022-08-19T03:19:13;27.10;;;13.98;;
48685;SDS011;34485;51.536;3.816;2022-08-19T03:21:42;34.28;;;13.77;;
48685;SDS011;34485;51.536;3.816;2022-08-19T03:24:09;27.03;;;14.47;;
48685;SDS011;34485;51.536;3.816;2022-08-19T03:26:39;24.50;;;14.85;;
48685;SDS011;34485;51.536;3.816;2022-08-19T03:29:07;27.73;;;14.18;;
48685;SDS011;34485;51.536;3.816;2022-08-19T03:31:35;25.70;;;13.25;;
48685;SDS011;34485;51.536;3.816;2022-08-19T03:34:02;25.92;;;15.40;;
48685;SDS011;34485;51.536;3.816;2022-08-19T03:36:28;25.20;;;13.37;;
48685;SDS011;34485;51.536;3.816;2022-08-19T03:38:55;26.23;;;13.68;;
48685;SDS011;34485;51.536;3.816;2022-08-19T03:41:28;26.97;;;14.13;;
48685;SDS011;34485;51.536;3.816;2022-08-19T03:44:15;22.00;;;12.95;;
48685;SDS011;34485;51.536;3.816;2022-08-19T03:46:42;31.15;;;14.30;;
48685;SDS011;34485;51.536;3.816;2022-08-19T03:49:08;28.05;;;14.40;;
48685;SDS011;34485;51.536;3.816;2022-08-19T03:51:35;27.63;;;14.60;;
48685;SDS011;34485;51.536;3.816;2022-08-19T03:54:05;28.83;;;14.48;;
48685;SDS011;34485;51.536;3.816;2022-08-19T03:56:36;26.65;;;13.25;;
48685;SDS011;34485;51.536;3.816;2022-08-19T03:59:03;21.38;;;13.90;;
48685;SDS011;34485;51.536;3.816;2022-08-19T04:01:30;28.98;;;14.57;;
48685;SDS011;34485;51.536;3.816;2022-08-19T04:03:56;24.97;;;13.23;;
48685;SDS011;34485;51.536;3.816;2022-08-19T04:06:24;28.25;;;14.30;;
48685;SDS011;34485;51.536;3.816;2022-08-19T04:08:53;26.58;;;13.70;;
48685;SDS011;34485;51.536;3.816;2022-08-19T04:11:22;27.45;;;14.13;;
48685;SDS011;34485;51.536;3.816;2022-08-19T04:13:51;24.90;;;12.37;;
48685;SDS011;34485;51.536;3.816;2022-08-19T04:16:18;26.85;;;14.23;;
48685;SDS011;34485;51.536;3.816;2022-08-19T04:18:45;22.52;;;12.82;;
48685;SDS011;34485;51.536;3.816;2022-08-19T04:21:20;29.63;;;13.07;;
48685;SDS011;34485;51.536;3.816;2022-08-19T04:23:48;23.17;;;12.23;;
48685;SDS011;34485;51.536;3.816;2022-08-19T04:26:14;24.50;;;11.93;;
48685;SDS011;34485;51.536;3.816;2022-08-19T04:28:41;27.70;;;12.77;;
48685;SDS011;34485;51.536;3.816;2022-08-19T04:31:12;28.42;;;14.00;;
48685;SDS011;34485;51.536;3.816;2022-08-19T04:33:40;22.50;;;12.30;;
48685;SDS011;34485;51.536;3.816;2022-08-19T04:36:05;26.63;;;13.23;;
48685;SDS011;34485;51.536;3.816;2022-08-19T04:38:32;24.80;;;13.00;;
48685;SDS011;34485;51.536;3.816;2022-08-19T04:40:58;26.25;;;13.20;;
48685;SDS011;34485;51.536;3.816;2022-08-19T04:43:42;30.27;;;12.32;;
48685;SDS011;34485;51.536;3.816;2022-08-19T04:46:14;26.25;;;13.38;;
48685;SDS011;34485;51.536;3.816;2022-08-19T04:48:39;21.30;;;12.23;;
48685;SDS011;34485;51.536;3.816;2022-08-19T04:51:06;23.30;;;12.02;;
48685;SDS011;34485;51.536;3.816;2022-08-19T04:53:35;26.83;;;12.30;;
48685;SDS011;34485;51.536;3.816;2022-08-19T04:56:10;27.75;;;12.45;;
48685;SDS011;34485;51.536;3.816;2022-08-19T04:58:40;20.27;;;11.87;;
48685;SDS011;34485;51.536;3.816;2022-08-19T05:01:07;23.52;;;12.43;;
48685;SDS011;34485;51.536;3.816;2022-08-19T05:03:37;31.88;;;13.00;;
48685;SDS011;34485;51.536;3.816;2022-08-19T05:06:08;20.90;;;11.20;;
48685;SDS011;34485;51.536;3.816;2022-08-19T05:08:37;23.83;;;11.75;;
48685;SDS011;34485;51.536;3.816;2022-08-19T05:13:48;24.67;;;12.20;;
48685;SDS011;34485;51.536;3.816;2022-08-19T05:16:14;21.73;;;10.95;;
48685;SDS011;34485;51.536;3.816;2022-08-19T05:18:42;24.20;;;12.50;;
48685;SDS011;34485;51.536;3.816;2022-08-19T05:21:27;22.75;;;11.93;;
48685;SDS011;34485;51.536;3.816;2022-08-19T05:24:12;23.73;;;11.77;;
48685;SDS011;34485;51.536;3.816;2022-08-19T05:26:39;25.48;;;12.55;;
48685;SDS011;34485;51.536;3.816;2022-08-19T05:29:07;22.85;;;11.75;;
48685;SDS011;34485;51.536;3.816;2022-08-19T05:31:33;24.10;;;12.38;;
48685;SDS011;34485;51.536;3.816;2022-08-19T05:34:00;28.15;;;12.30;;
48685;SDS011;34485;51.536;3.816;2022-08-19T05:36:27;22.77;;;10.83;;
48685;SDS011;34485;51.536;3.816;2022-08-19T05:38:57;22.33;;;12.13;;
48685;SDS011;34485;51.536;3.816;2022-08-19T05:41:23;22.70;;;11.57;;
48685;SDS011;34485;51.536;3.816;2022-08-19T05:43:54;23.67;;;12.00;;
48685;SDS011;34485;51.536;3.816;2022-08-19T05:46:23;20.13;;;10.98;;
48685;SDS011;34485;51.536;3.816;2022-08-19T05:48:49;21.83;;;10.68;;
48685;SDS011;34485;51.536;3.816;2022-08-19T05:51:15;22.73;;;10.77;;
48685;SDS011;34485;51.536;3.816;2022-08-19T05:53:41;21.50;;;11.85;;
48685;SDS011;34485;51.536;3.816;2022-08-19T05:56:08;21.30;;;11.07;;
48685;SDS011;34485;51.536;3.816;2022-08-19T05:58:36;20.50;;;12.00;;
48685;SDS011;34485;51.536;3.816;2022-08-19T06:01:03;18.50;;;9.52;;
48685;SDS011;34485;51.536;3.816;2022-08-19T06:03:32;18.80;;;10.73;;
48685;SDS011;34485;51.536;3.816;2022-08-19T06:05:58;23.80;;;11.30;;
48685;SDS011;34485;51.536;3.816;2022-08-19T06:08:25;14.37;;;10.20;;
48685;SDS011;34485;51.536;3.816;2022-08-19T06:10:51;20.13;;;11.05;;
48685;SDS011;34485;51.536;3.816;2022-08-19T06:13:17;22.60;;;12.05;;
48685;SDS011;34485;51.536;3.816;2022-08-19T06:15:44;21.98;;;11.35;;
48685;SDS011;34485;51.536;3.816;2022-08-19T06:18:11;16.20;;;9.83;;
48685;SDS011;34485;51.536;3.816;2022-08-19T06:20:38;15.38;;;8.95;;
48685;SDS011;34485;51.536;3.816;2022-08-19T06:23:04;19.35;;;9.52;;
48685;SDS011;34485;51.536;3.816;2022-08-19T06:25:30;17.83;;;9.07;;
48685;SDS011;34485;51.536;3.816;2022-08-19T06:27:56;16.88;;;8.95;;
48685;SDS011;34485;51.536;3.816;2022-08-19T06:30:21;16.10;;;9.37;;
48685;SDS011;34485;51.536;3.816;2022-08-19T06:32:47;13.25;;;9.48;;
48685;SDS011;34485;51.536;3.816;2022-08-19T06:35:12;17.13;;;9.03;;
48685;SDS011;34485;51.536;3.816;2022-08-19T06:37:39;15.20;;;9.10;;
48685;SDS011;34485;51.536;3.816;2022-08-19T06:40:05;16.00;;;9.32;;
48685;SDS011;34485;51.536;3.816;2022-08-19T06:42:33;19.90;;;9.10;;
48685;SDS011;34485;51.536;3.816;2022-08-19T06:44:59;16.65;;;9.38;;
48685;SDS011;34485;51.536;3.816;2022-08-19T06:47:28;17.05;;;9.10;;
48685;SDS011;34485;51.536;3.816;2022-08-19T06:49:55;17.67;;;9.80;;
48685;SDS011;34485;51.536;3.816;2022-08-19T06:52:25;15.23;;;8.43;;
48685;SDS011;34485;51.536;3.816;2022-08-19T06:54:50;17.83;;;8.93;;
48685;SDS011;34485;51.536;3.816;2022-08-19T06:57:16;13.07;;;9.10;;
48685;SDS011;34485;51.536;3.816;2022-08-19T06:59:41;16.83;;;8.80;;
48685;SDS011;34485;51.536;3.816;2022-08-19T07:02:07;13.80;;;8.20;;
48685;SDS011;34485;51.536;3.816;2022-08-19T07:04:34;17.53;;;8.77;;
48685;SDS011;34485;51.536;3.816;2022-08-19T07:07:03;13.47;;;9.03;;
48685;SDS011;34485;51.536;3.816;2022-08-19T07:09:33;13.77;;;8.52;;
48685;SDS011;34485;51.536;3.816;2022-08-19T07:12:02;16.73;;;8.95;;
48685;SDS011;34485;51.536;3.816;2022-08-19T07:14:28;14.32;;;8.57;;
48685;SDS011;34485;51.536;3.816;2022-08-19T07:16:55;18.97;;;9.03;;
48685;SDS011;34485;51.536;3.816;2022-08-19T07:19:22;11.32;;;7.97;;
48685;SDS011;34485;51.536;3.816;2022-08-19T07:21:51;13.88;;;8.15;;
48685;SDS011;34485;51.536;3.816;2022-08-19T07:24:18;14.75;;;7.15;;
48685;SDS011;34485;51.536;3.816;2022-08-19T07:26:45;10.80;;;7.77;;
48685;SDS011;34485;51.536;3.816;2022-08-19T07:29:11;9.07;;;7.30;;
48685;SDS011;34485;51.536;3.816;2022-08-19T07:31:38;9.90;;;7.53;;
48685;SDS011;34485;51.536;3.816;2022-08-19T07:34:04;11.50;;;7.10;;
48685;SDS011;34485;51.536;3.816;2022-08-19T07:36:35;13.90;;;7.97;;
48685;SDS011;34485;51.536;3.816;2022-08-19T07:39:07;10.33;;;7.00;;
48685;SDS011;34485;51.536;3.816;2022-08-19T07:41:37;12.98;;;9.48;;
48685;SDS011;34485;51.536;3.816;2022-08-19T07:44:04;11.55;;;7.95;;
48685;SDS011;34485;51.536;3.816;2022-08-19T07:46:33;13.05;;;7.30;;
48685;SDS011;34485;51.536;3.816;2022-08-19T07:49:00;12.90;;;7.50;;
48685;SDS011;34485;51.536;3.816;2022-08-19T07:51:27;9.13;;;6.50;;
48685;SDS011;34485;51.536;3.816;2022-08-19T07:53:54;12.18;;;6.03;;
48685;SDS011;34485;51.536;3.816;2022-08-19T07:56:19;8.65;;;6.10;;
48685;SDS011;34485;51.536;3.816;2022-08-19T07:58:47;10.83;;;6.20;;
48685;SDS011;34485;51.536;3.816;2022-08-19T08:01:16;11.50;;;6.85;;
48685;SDS011;34485;51.536;3.816;2022-08-19T08:03:46;9.27;;;6.85;;
48685;SDS011;34485;51.536;3.816;2022-08-19T08:06:32;9.75;;;6.78;;
48685;SDS011;34485;51.536;3.816;2022-08-19T08:09:17;10.55;;;6.63;;
48685;SDS011;34485;51.536;3.816;2022-08-19T08:14:22;8.30;;;6.05;;
48685;SDS011;34485;51.536;3.816;2022-08-19T08:16:50;10.70;;;6.72;;
48685;SDS011;34485;51.536;3.816;2022-08-19T08:19:18;8.07;;;4.65;;
48685;SDS011;34485;51.536;3.816;2022-08-19T08:21:45;6.13;;;5.38;;
48685;SDS011;34485;51.536;3.816;2022-08-19T08:24:11;5.43;;;3.90;;
48685;SDS011;34485;51.536;3.816;2022-08-19T08:26:37;6.32;;;3.95;;
48685;SDS011;34485;51.536;3.816;2022-08-19T08:29:04;7.28;;;4.10;;
48685;SDS011;34485;51.536;3.816;2022-08-19T08:31:30;5.30;;;4.07;;
48685;SDS011;34485;51.536;3.816;2022-08-19T08:33:55;4.97;;;3.95;;
48685;SDS011;34485;51.536;3.816;2022-08-19T08:36:21;5.60;;;4.53;;
48685;SDS011;34485;51.536;3.816;2022-08-19T08:38:46;5.32;;;4.05;;
48685;SDS011;34485;51.536;3.816;2022-08-19T08:43:58;7.53;;;5.33;;
48685;SDS011;34485;51.536;3.816;2022-08-19T08:46:34;10.20;;;5.60;;
48685;SDS011;34485;51.536;3.816;2022-08-19T08:51:35;6.95;;;5.80;;
48685;SDS011;34485;51.536;3.816;2022-08-19T08:54:06;7.32;;;5.28;;
48685;SDS011;34485;51.536;3.816;2022-08-19T08:56:35;8.53;;;5.67;;
48685;SDS011;34485;51.536;3.816;2022-08-19T08:59:10;8.25;;;6.10;;
48685;SDS011;34485;51.536;3.816;2022-08-19T09:01:37;6.93;;;5.05;;
48685;SDS011;34485;51.536;3.816;2022-08-19T09:04:05;5.68;;;5.18;;
48685;SDS011;34485;51.536;3.816;2022-08-19T09:06:37;6.45;;;5.80;;
48685;SDS011;34485;51.536;3.816;2022-08-19T09:09:16;6.73;;;5.53;;
48685;SDS011;34485;51.536;3.816;2022-08-19T09:17:18;11.07;;;5.65;;
48685;SDS011;34485;51.536;3.816;2022-08-19T09:19:57;6.32;;;5.10;;
48685;SDS011;34485;51.536;3.816;2022-08-19T09:22:29;9.80;;;6.10;;
48685;SDS011;34485;51.536;3.816;2022-08-19T09:24:55;7.28;;;5.65;;
48685;SDS011;34485;51.536;3.816;2022-08-19T09:27:21;6.90;;;5.18;;
48685;SDS011;34485;51.536;3.816;2022-08-19T09:29:49;7.17;;;5.73;;
48685;SDS011;34485;51.536;3.816;2022-08-19T09:32:15;12.52;;;7.13;;
48685;SDS011;34485;51.536;3.816;2022-08-19T09:34:42;13.77;;;8.27;;
48685;SDS011;34485;51.536;3.816;2022-08-19T09:37:08;12.00;;;7.63;;
48685;SDS011;34485;51.536;3.816;2022-08-19T09:39:34;10.17;;;7.97;;
48685;SDS011;34485;51.536;3.816;2022-08-19T09:41:59;9.65;;;7.68;;
48685;SDS011;34485;51.536;3.816;2022-08-19T09:44:25;8.47;;;7.37;;
48685;SDS011;34485;51.536;3.816;2022-08-19T09:46:51;8.90;;;6.75;;
48685;SDS011;34485;51.536;3.816;2022-08-19T09:49:17;8.43;;;6.23;;
48685;SDS011;34485;51.536;3.816;2022-08-19T09:51:48;6.10;;;5.50;;
48685;SDS011;34485;51.536;3.816;2022-08-19T09:54:15;5.10;;;4.30;;
48685;SDS011;34485;51.536;3.816;2022-08-19T09:56:40;9.93;;;4.80;;
48685;SDS011;34485;51.536;3.816;2022-08-19T09:59:06;4.18;;;3.63;;
48685;SDS011;34485;51.536;3.816;2022-08-19T10:01:32;4.13;;;3.83;;
48685;SDS011;34485;51.536;3.816;2022-08-19T10:03:58;4.18;;;3.78;;
48685;SDS011;34485;51.536;3.816;2022-08-19T10:06:26;6.53;;;3.88;;
48685;SDS011;34485;51.536;3.816;2022-08-19T10:08:56;4.85;;;3.97;;
48685;SDS011;34485;51.536;3.816;2022-08-19T10:11:22;4.87;;;3.70;;
48685;SDS011;34485;51.536;3.816;2022-08-19T10:13:48;5.13;;;3.35;;
48685;SDS011;34485;51.536;3.816;2022-08-19T10:16:15;5.20;;;3.47;;
48685;SDS011;34485;51.536;3.816;2022-08-19T10:18:44;5.25;;;3.40;;
48685;SDS011;34485;51.536;3.816;2022-08-19T10:21:15;3.70;;;3.22;;
48685;SDS011;34485;51.536;3.816;2022-08-19T10:23:47;5.03;;;3.70;;
48685;SDS011;34485;51.536;3.816;2022-08-19T10:26:18;4.65;;;3.50;;
48685;SDS011;34485;51.536;3.816;2022-08-19T10:28:46;4.07;;;3.10;;
48685;SDS011;34485;51.536;3.816;2022-08-19T10:31:13;5.53;;;3.03;;
48685;SDS011;34485;51.536;3.816;2022-08-19T10:33:42;5.70;;;2.67;;
48685;SDS011;34485;51.536;3.816;2022-08-19T10:36:10;3.67;;;2.83;;
48685;SDS011;34485;51.536;3.816;2022-08-19T10:38:40;3.63;;;2.57;;
48685;SDS011;34485;51.536;3.816;2022-08-19T10:41:07;3.60;;;2.65;;
48685;SDS011;34485;51.536;3.816;2022-08-19T10:43:33;6.40;;;2.90;;
48685;SDS011;34485;51.536;3.816;2022-08-19T10:46:03;3.03;;;2.75;;
48685;SDS011;34485;51.536;3.816;2022-08-19T10:48:30;3.50;;;3.20;;
48685;SDS011;34485;51.536;3.816;2022-08-19T10:50:57;2.90;;;2.50;;
48685;SDS011;34485;51.536;3.816;2022-08-19T10:53:41;3.30;;;2.90;;
48685;SDS011;34485;51.536;3.816;2022-08-19T10:56:06;3.20;;;2.72;;
48685;SDS011;34485;51.536;3.816;2022-08-19T10:58:50;3.63;;;2.00;;
48685;SDS011;34485;51.536;3.816;2022-08-19T11:01:16;2.38;;;1.73;;
48685;SDS011;34485;51.536;3.816;2022-08-19T11:03:42;4.30;;;1.90;;
48685;SDS011;34485;51.536;3.816;2022-08-19T11:06:10;2.17;;;1.85;;
48685;SDS011;34485;51.536;3.816;2022-08-19T11:08:36;2.35;;;1.60;;
48685;SDS011;34485;51.536;3.816;2022-08-19T11:11:03;4.00;;;1.83;;
48685;SDS011;34485;51.536;3.816;2022-08-19T11:13:31;2.00;;;1.83;;
48685;SDS011;34485;51.536;3.816;2022-08-19T11:16:04;2.40;;;1.98;;
48685;SDS011;34485;51.536;3.816;2022-08-19T11:18:33;2.35;;;1.98;;
48685;SDS011;34485;51.536;3.816;2022-08-19T11:21:12;4.78;;;2.70;;
48685;SDS011;34485;51.536;3.816;2022-08-19T11:23:43;2.38;;;2.17;;
48685;SDS011;34485;51.536;3.816;2022-08-19T11:26:10;2.63;;;2.00;;
48685;SDS011;34485;51.536;3.816;2022-08-19T11:28:36;3.13;;;1.88;;
48685;SDS011;34485;51.536;3.816;2022-08-19T11:31:02;3.13;;;2.15;;
48685;SDS011;34485;51.536;3.816;2022-08-19T11:33:29;3.57;;;2.30;;
48685;SDS011;34485;51.536;3.816;2022-08-19T11:35:57;3.25;;;2.00;;
48685;SDS011;34485;51.536;3.816;2022-08-19T11:38:24;2.03;;;1.92;;
48685;SDS011;34485;51.536;3.816;2022-08-19T11:40:54;2.40;;;1.80;;
48685;SDS011;34485;51.536;3.816;2022-08-19T11:43:24;2.10;;;1.85;;
48685;SDS011;34485;51.536;3.816;2022-08-19T11:45:52;2.80;;;2.10;;
48685;SDS011;34485;51.536;3.816;2022-08-19T11:48:18;2.22;;;1.40;;
48685;SDS011;34485;51.536;3.816;2022-08-19T11:50:46;2.70;;;2.10;;
48685;SDS011;34485;51.536;3.816;2022-08-19T11:53:13;3.80;;;1.95;;
48685;SDS011;34485;51.536;3.816;2022-08-19T11:55:39;2.83;;;1.83;;
48685;SDS011;34485;51.536;3.816;2022-08-19T11:58:05;4.10;;;1.98;;
48685;SDS011;34485;51.536;3.816;2022-08-19T12:00:32;3.03;;;2.13;;
48685;SDS011;34485;51.536;3.816;2022-08-19T12:03:00;3.20;;;2.00;;
48685;SDS011;34485;51.536;3.816;2022-08-19T12:05:26;2.03;;;1.80;;
48685;SDS011;34485;51.536;3.816;2022-08-19T12:07:52;3.28;;;2.30;;
48685;SDS011;34485;51.536;3.816;2022-08-19T12:10:19;2.63;;;2.35;;
48685;SDS011;34485;51.536;3.816;2022-08-19T12:12:45;7.13;;;2.47;;
48685;SDS011;34485;51.536;3.816;2022-08-19T12:15:11;3.65;;;2.55;;
48685;SDS011;34485;51.536;3.816;2022-08-19T12:17:39;4.20;;;2.60;;
48685;SDS011;34485;51.536;3.816;2022-08-19T12:20:07;6.10;;;3.17;;
48685;SDS011;34485;51.536;3.816;2022-08-19T12:22:34;3.60;;;3.40;;
48685;SDS011;34485;51.536;3.816;2022-08-19T12:25:01;3.45;;;3.05;;
48685;SDS011;34485;51.536;3.816;2022-08-19T12:27:27;5.90;;;4.40;;
48685;SDS011;34485;51.536;3.816;2022-08-19T12:29:52;4.80;;;4.43;;
48685;SDS011;34485;51.536;3.816;2022-08-19T12:32:18;4.40;;;4.10;;
48685;SDS011;34485;51.536;3.816;2022-08-19T12:34:43;4.40;;;3.53;;
48685;SDS011;34485;51.536;3.816;2022-08-19T12:37:12;4.30;;;3.70;;
48685;SDS011;34485;51.536;3.816;2022-08-19T12:39:39;3.43;;;3.13;;
48685;SDS011;34485;51.536;3.816;2022-08-19T12:42:06;3.53;;;3.22;;
48685;SDS011;34485;51.536;3.816;2022-08-19T12:44:33;4.63;;;3.10;;
48685;SDS011;34485;51.536;3.816;2022-08-19T12:47:00;4.80;;;2.92;;
48685;SDS011;34485;51.536;3.816;2022-08-19T12:49:28;3.47;;;3.17;;
48685;SDS011;34485;51.536;3.816;2022-08-19T12:51:54;3.23;;;3.00;;
48685;SDS011;34485;51.536;3.816;2022-08-19T12:54:20;5.32;;;3.20;;
48685;SDS011;34485;51.536;3.816;2022-08-19T12:56:46;3.53;;;3.22;;
48685;SDS011;34485;51.536;3.816;2022-08-19T12:59:12;3.83;;;3.17;;
48685;SDS011;34485;51.536;3.816;2022-08-19T13:01:39;4.50;;;3.47;;
48685;SDS011;34485;51.536;3.816;2022-08-19T13:04:05;8.18;;;3.75;;
48685;SDS011;34485;51.536;3.816;2022-08-19T13:06:31;4.60;;;4.30;;
48685;SDS011;34485;51.536;3.816;2022-08-19T13:08:56;6.40;;;4.25;;
48685;SDS011;34485;51.536;3.816;2022-08-19T13:11:22;5.00;;;4.47;;
48685;SDS011;34485;51.536;3.816;2022-08-19T13:13:50;4.32;;;3.70;;
48685;SDS011;34485;51.536;3.816;2022-08-19T13:16:17;3.78;;;3.40;;
48685;SDS011;34485;51.536;3.816;2022-08-19T13:18:44;3.77;;;3.10;;
48685;SDS011;34485;51.536;3.816;2022-08-19T13:21:12;3.05;;;2.63;;
48685;SDS011;34485;51.536;3.816;2022-08-19T13:23:38;5.22;;;2.40;;
48685;SDS011;34485;51.536;3.816;2022-08-19T13:26:06;4.20;;;2.30;;
48685;SDS011;34485;51.536;3.816;2022-08-19T13:28:33;3.20;;;2.50;;
48685;SDS011;34485;51.536;3.816;2022-08-19T13:31:18;3.00;;;2.20;;
48685;SDS011;34485;51.536;3.816;2022-08-19T13:34:04;3.97;;;2.95;;
48685;SDS011;34485;51.536;3.816;2022-08-19T13:36:30;4.63;;;2.60;;
48685;SDS011;34485;51.536;3.816;2022-08-19T13:38:56;3.08;;;2.30;;
48685;SDS011;34485;51.536;3.816;2022-08-19T13:41:22;5.57;;;2.40;;
48685;SDS011;34485;51.536;3.816;2022-08-19T13:43:48;3.42;;;2.30;;
48685;SDS011;34485;51.536;3.816;2022-08-19T13:46:14;3.37;;;2.10;;
48685;SDS011;34485;51.536;3.816;2022-08-19T13:48:40;7.05;;;2.65;;
48685;SDS011;34485;51.536;3.816;2022-08-19T13:51:06;6.53;;;2.58;;
48685;SDS011;34485;51.536;3.816;2022-08-19T13:53:35;7.68;;;2.90;;
48685;SDS011;34485;51.536;3.816;2022-08-19T13:56:05;6.18;;;2.30;;
48685;SDS011;34485;51.536;3.816;2022-08-19T13:58:31;7.97;;;3.13;;
48685;SDS011;34485;51.536;3.816;2022-08-19T14:00:57;2.78;;;2.40;;
48685;SDS011;34485;51.536;3.816;2022-08-19T14:03:24;2.30;;;2.10;;
48685;SDS011;34485;51.536;3.816;2022-08-19T14:05:50;2.33;;;1.80;;
48685;SDS011;34485;51.536;3.816;2022-08-19T14:08:15;2.93;;;1.77;;
48685;SDS011;34485;51.536;3.816;2022-08-19T14:10:42;1.50;;;1.40;;
48685;SDS011;34485;51.536;3.816;2022-08-19T14:13:09;1.52;;;1.42;;
48685;SDS011;34485;51.536;3.816;2022-08-19T14:15:35;2.17;;;1.80;;
48685;SDS011;34485;51.536;3.816;2022-08-19T14:18:02;1.35;;;1.35;;
48685;SDS011;34485;51.536;3.816;2022-08-19T14:20:28;1.33;;;1.33;;
48685;SDS011;34485;51.536;3.816;2022-08-19T14:22:53;1.73;;;1.10;;
48685;SDS011;34485;51.536;3.816;2022-08-19T14:25:24;1.15;;;1.10;;
48685;SDS011;34485;51.536;3.816;2022-08-19T14:27:51;1.20;;;1.20;;
48685;SDS011;34485;51.536;3.816;2022-08-19T14:30:19;1.33;;;1.00;;
48685;SDS011;34485;51.536;3.816;2022-08-19T14:32:54;1.25;;;1.25;;
48685;SDS011;34485;51.536;3.816;2022-08-19T14:35:21;1.73;;;1.40;;
48685;SDS011;34485;51.536;3.816;2022-08-19T14:37:46;1.93;;;1.30;;
48685;SDS011;34485;51.536;3.816;2022-08-19T14:40:14;1.85;;;1.60;;
48685;SDS011;34485;51.536;3.816;2022-08-19T14:42:41;3.15;;;1.73;;
48685;SDS011;34485;51.536;3.816;2022-08-19T14:45:07;3.20;;;1.80;;
48685;SDS011;34485;51.536;3.816;2022-08-19T14:47:34;2.25;;;1.67;;
48685;SDS011;34485;51.536;3.816;2022-08-19T14:49:59;3.78;;;2.10;;
48685;SDS011;34485;51.536;3.816;2022-08-19T14:52:25;3.47;;;2.10;;
48685;SDS011;34485;51.536;3.816;2022-08-19T14:54:51;1.65;;;1.55;;